Terminal Aerodrome Forecast
Issued by NWS

Home | Current Version | Previous Version | Text Only | Print | Product List | Glossary On
Versions: 1 2 3 4 5 6 7 8 9 10 11 12 13
670
FTUS45 KABQ 260538
TAFGUP
TAF
KGUP 260538Z 2606/2706 15007KT P6SM VCSH BKN090
      TEMPO 2609/2611 -SHRA BKN080
     FM261200 VRB05KT P6SM SCT120
     FM262000 27006KT P6SM VCSH BKN090
     FM262200 35010KT P6SM VCTS BKN070CB OVC120
     FM270100 27010KT P6SM VCSH BKN080 OVC140
     FM270500 VRB05KT P6SM BKN120=

USA.gov is the U.S. government's official web portal to all federal, state and local government web resources and services.